sensor_id;sensor_type;location;lat;lon;timestamp;temperature;humidity
75049;DHT22;63803;53.120;8.764;2022-10-15T00:00:22;23.30;61.60
75049;DHT22;63803;53.120;8.764;2022-10-15T00:02:47;23.80;62.30
75049;DHT22;63803;53.120;8.764;2022-10-15T00:05:13;23.30;61.70
75049;DHT22;63803;53.120;8.764;2022-10-15T00:07:39;23.30;61.70
75049;DHT22;63803;53.120;8.764;2022-10-15T00:10:06;23.30;61.60
75049;DHT22;63803;53.120;8.764;2022-10-15T00:12:32;23.40;61.70
75049;DHT22;63803;53.120;8.764;2022-10-15T00:14:58;23.30;61.60
75049;DHT22;63803;53.120;8.764;2022-10-15T00:17:23;23.30;61.60
75049;DHT22;63803;53.120;8.764;2022-10-15T00:19:49;23.30;61.60
75049;DHT22;63803;53.120;8.764;2022-10-15T00:22:15;23.80;62.30
75049;DHT22;63803;53.120;8.764;2022-10-15T00:24:41;23.30;61.50
75049;DHT22;63803;53.120;8.764;2022-10-15T00:27:07;23.40;61.70
75049;DHT22;63803;53.120;8.764;2022-10-15T00:29:33;23.30;61.50
75049;DHT22;63803;53.120;8.764;2022-10-15T00:31:59;22.70;61.60
75049;DHT22;63803;53.120;8.764;2022-10-15T00:34:24;23.40;61.60
75049;DHT22;63803;53.120;8.764;2022-10-15T00:36:50;23.30;61.50
75049;DHT22;63803;53.120;8.764;2022-10-15T00:39:16;23.30;61.50
75049;DHT22;63803;53.120;8.764;2022-10-15T00:41:43;23.30;61.50
75049;DHT22;63803;53.120;8.764;2022-10-15T00:47:01;23.30;61.40
75049;DHT22;63803;53.120;8.764;2022-10-15T00:49:33;23.30;61.50
75049;DHT22;63803;53.120;8.764;2022-10-15T00:52:04;22.90;61.70
75049;DHT22;63803;53.120;8.764;2022-10-15T00:54:36;23.30;61.50
75049;DHT22;63803;53.120;8.764;2022-10-15T00:57:04;23.40;61.80
75049;DHT22;63803;53.120;8.764;2022-10-15T00:59:31;23.30;62.00
75049;DHT22;63803;53.120;8.764;2022-10-15T01:01:59;23.50;61.50
75049;DHT22;63803;53.120;8.764;2022-10-15T01:04:26;23.30;61.30
75049;DHT22;63803;53.120;8.764;2022-10-15T01:06:52;23.30;61.30
75049;DHT22;63803;53.120;8.764;2022-10-15T01:09:18;23.10;61.70
75049;DHT22;63803;53.120;8.764;2022-10-15T01:11:47;23.20;61.70
75049;DHT22;63803;53.120;8.764;2022-10-15T01:17:11;23.30;61.30
75049;DHT22;63803;53.120;8.764;2022-10-15T01:25:14;23.30;61.30
75049;DHT22;63803;53.120;8.764;2022-10-15T01:27:55;23.30;61.30
75049;DHT22;63803;53.120;8.764;2022-10-15T01:30:44;23.30;61.20
75049;DHT22;63803;53.120;8.764;2022-10-15T01:33:34;23.30;61.20
75049;DHT22;63803;53.120;8.764;2022-10-15T01:38:57;23.40;61.70
75049;DHT22;63803;53.120;8.764;2022-10-15T01:41:45;23.30;61.10
75049;DHT22;63803;53.120;8.764;2022-10-15T01:44:24;23.30;61.10
75049;DHT22;63803;53.120;8.764;2022-10-15T01:46:58;23.30;61.10
75049;DHT22;63803;53.120;8.764;2022-10-15T01:49:29;23.30;61.10
75049;DHT22;63803;53.120;8.764;2022-10-15T01:51:57;22.30;60.50
75049;DHT22;63803;53.120;8.764;2022-10-15T01:54:26;23.30;61.00
75049;DHT22;63803;53.120;8.764;2022-10-15T01:56:53;23.30;61.00
75049;DHT22;63803;53.120;8.764;2022-10-15T01:59:30;23.10;61.30
75049;DHT22;63803;53.120;8.764;2022-10-15T02:01:56;23.30;61.00
75049;DHT22;63803;53.120;8.764;2022-10-15T02:04:32;23.30;61.00
75049;DHT22;63803;53.120;8.764;2022-10-15T02:07:03;22.50;60.90
75049;DHT22;63803;53.120;8.764;2022-10-15T02:09:51;23.30;60.90
75049;DHT22;63803;53.120;8.764;2022-10-15T02:12:45;23.30;60.90
75049;DHT22;63803;53.120;8.764;2022-10-15T02:15:28;23.20;60.80
75049;DHT22;63803;53.120;8.764;2022-10-15T02:20:39;23.20;60.80
75049;DHT22;63803;53.120;8.764;2022-10-15T02:23:24;23.30;60.90
75049;DHT22;63803;53.120;8.764;2022-10-15T02:25:52;24.80;62.10
75049;DHT22;63803;53.120;8.764;2022-10-15T02:28:20;23.30;60.80
75049;DHT22;63803;53.120;8.764;2022-10-15T02:30:50;23.30;60.90
75049;DHT22;63803;53.120;8.764;2022-10-15T02:33:18;23.20;60.80
75049;DHT22;63803;53.120;8.764;2022-10-15T02:35:46;23.20;61.20
75049;DHT22;63803;53.120;8.764;2022-10-15T02:38:15;23.30;60.80
75049;DHT22;63803;53.120;8.764;2022-10-15T02:40:42;23.30;60.80
75049;DHT22;63803;53.120;8.764;2022-10-15T02:43:11;23.30;60.80
75049;DHT22;63803;53.120;8.764;2022-10-15T02:45:37;23.30;60.80
75049;DHT22;63803;53.120;8.764;2022-10-15T02:48:04;23.30;60.80
75049;DHT22;63803;53.120;8.764;2022-10-15T02:50:30;23.30;60.70
75049;DHT22;63803;53.120;8.764;2022-10-15T02:52:55;23.30;60.80
75049;DHT22;63803;53.120;8.764;2022-10-15T02:55:21;23.30;60.70
75049;DHT22;63803;53.120;8.764;2022-10-15T02:57:47;23.20;60.70
75049;DHT22;63803;53.120;8.764;2022-10-15T03:00:13;23.20;60.70
75049;DHT22;63803;53.120;8.764;2022-10-15T03:02:39;23.20;60.70
75049;DHT22;63803;53.120;8.764;2022-10-15T03:05:05;22.40;60.80
75049;DHT22;63803;53.120;8.764;2022-10-15T03:07:31;23.20;60.60
75049;DHT22;63803;53.120;8.764;2022-10-15T03:09:57;23.20;60.70
75049;DHT22;63803;53.120;8.764;2022-10-15T03:12:23;23.30;60.70
75049;DHT22;63803;53.120;8.764;2022-10-15T03:14:51;23.30;60.70
75049;DHT22;63803;53.120;8.764;2022-10-15T03:17:17;23.30;60.70
75049;DHT22;63803;53.120;8.764;2022-10-15T03:19:43;23.20;60.60
75049;DHT22;63803;53.120;8.764;2022-10-15T03:22:09;23.20;60.60
75049;DHT22;63803;53.120;8.764;2022-10-15T03:24:35;23.30;60.60
75049;DHT22;63803;53.120;8.764;2022-10-15T03:27:00;23.30;60.60
75049;DHT22;63803;53.120;8.764;2022-10-15T03:29:26;23.30;60.60
75049;DHT22;63803;53.120;8.764;2022-10-15T03:31:52;23.40;60.70
75049;DHT22;63803;53.120;8.764;2022-10-15T03:34:18;23.20;60.50
75049;DHT22;63803;53.120;8.764;2022-10-15T03:36:44;25.30;62.20
75049;DHT22;63803;53.120;8.764;2022-10-15T03:39:11;23.30;60.60
75049;DHT22;63803;53.120;8.764;2022-10-15T03:41:37;23.30;60.60
75049;DHT22;63803;53.120;8.764;2022-10-15T03:44:05;23.20;60.50
75049;DHT22;63803;53.120;8.764;2022-10-15T03:46:32;23.20;60.50
75049;DHT22;63803;53.120;8.764;2022-10-15T03:48:58;23.20;60.50
75049;DHT22;63803;53.120;8.764;2022-10-15T03:51:24;25.00;61.80
75049;DHT22;63803;53.120;8.764;2022-10-15T03:53:50;23.20;60.40
75049;DHT22;63803;53.120;8.764;2022-10-15T03:56:16;23.20;60.40
75049;DHT22;63803;53.120;8.764;2022-10-15T03:58:42;23.20;60.30
75049;DHT22;63803;53.120;8.764;2022-10-15T04:01:12;23.20;60.70
75049;DHT22;63803;53.120;8.764;2022-10-15T04:03:39;23.20;60.40
75049;DHT22;63803;53.120;8.764;2022-10-15T04:06:05;23.30;60.40
75049;DHT22;63803;53.120;8.764;2022-10-15T04:08:31;23.30;60.50
75049;DHT22;63803;53.120;8.764;2022-10-15T04:10:57;23.30;60.40
75049;DHT22;63803;53.120;8.764;2022-10-15T04:13:27;23.30;60.40
75049;DHT22;63803;53.120;8.764;2022-10-15T04:15:53;22.40;60.40
75049;DHT22;63803;53.120;8.764;2022-10-15T04:18:20;23.20;60.30
75049;DHT22;63803;53.120;8.764;2022-10-15T04:20:49;23.30;60.30
75049;DHT22;63803;53.120;8.764;2022-10-15T04:23:16;23.30;60.40
75049;DHT22;63803;53.120;8.764;2022-10-15T04:25:42;23.20;60.30
75049;DHT22;63803;53.120;8.764;2022-10-15T04:28:08;23.30;60.30
75049;DHT22;63803;53.120;8.764;2022-10-15T04:30:34;22.90;60.50
75049;DHT22;63803;53.120;8.764;2022-10-15T04:32:59;23.30;60.20
75049;DHT22;63803;53.120;8.764;2022-10-15T04:35:25;23.20;60.20
75049;DHT22;63803;53.120;8.764;2022-10-15T04:37:51;23.30;60.30
75049;DHT22;63803;53.120;8.764;2022-10-15T04:40:18;23.20;60.10
75049;DHT22;63803;53.120;8.764;2022-10-15T04:42:44;23.30;60.20
75049;DHT22;63803;53.120;8.764;2022-10-15T04:45:10;23.20;60.10
75049;DHT22;63803;53.120;8.764;2022-10-15T04:47:36;23.30;60.20
75049;DHT22;63803;53.120;8.764;2022-10-15T04:50:02;23.30;60.20
75049;DHT22;63803;53.120;8.764;2022-10-15T04:52:27;23.30;60.20
75049;DHT22;63803;53.120;8.764;2022-10-15T04:54:54;23.20;60.10
75049;DHT22;63803;53.120;8.764;2022-10-15T04:57:19;23.20;60.10
75049;DHT22;63803;53.120;8.764;2022-10-15T04:59:45;23.20;60.10
75049;DHT22;63803;53.120;8.764;2022-10-15T05:02:11;24.40;61.10
75049;DHT22;63803;53.120;8.764;2022-10-15T05:04:37;23.20;60.00
75049;DHT22;63803;53.120;8.764;2022-10-15T05:07:02;23.20;60.10
75049;DHT22;63803;53.120;8.764;2022-10-15T05:09:28;23.10;60.00
75049;DHT22;63803;53.120;8.764;2022-10-15T05:11:54;23.20;60.00
75049;DHT22;63803;53.120;8.764;2022-10-15T05:14:21;23.20;60.00
75049;DHT22;63803;53.120;8.764;2022-10-15T05:16:47;23.20;60.00
75049;DHT22;63803;53.120;8.764;2022-10-15T05:19:13;23.20;60.00
75049;DHT22;63803;53.120;8.764;2022-10-15T05:21:40;23.20;60.00
75049;DHT22;63803;53.120;8.764;2022-10-15T05:24:06;23.20;60.00
75049;DHT22;63803;53.120;8.764;2022-10-15T05:26:32;23.20;59.90
75049;DHT22;63803;53.120;8.764;2022-10-15T05:28:58;24.10;61.00
75049;DHT22;63803;53.120;8.764;2022-10-15T05:31:26;24.80;60.80
75049;DHT22;63803;53.120;8.764;2022-10-15T05:33:53;23.20;59.90
75049;DHT22;63803;53.120;8.764;2022-10-15T05:36:20;23.20;60.00
75049;DHT22;63803;53.120;8.764;2022-10-15T05:38:51;23.20;59.90
75049;DHT22;63803;53.120;8.764;2022-10-15T05:41:18;23.20;59.80
75049;DHT22;63803;53.120;8.764;2022-10-15T05:43:51;23.20;59.90
75049;DHT22;63803;53.120;8.764;2022-10-15T05:46:17;23.20;59.80
75049;DHT22;63803;53.120;8.764;2022-10-15T05:48:56;23.20;59.90
75049;DHT22;63803;53.120;8.764;2022-10-15T05:51:23;23.20;59.90
75049;DHT22;63803;53.120;8.764;2022-10-15T05:53:53;23.20;59.80
75049;DHT22;63803;53.120;8.764;2022-10-15T05:56:20;23.20;59.80
75049;DHT22;63803;53.120;8.764;2022-10-15T05:58:46;23.20;59.80
75049;DHT22;63803;53.120;8.764;2022-10-15T06:01:12;23.20;59.80
75049;DHT22;63803;53.120;8.764;2022-10-15T06:03:39;23.20;59.80
75049;DHT22;63803;53.120;8.764;2022-10-15T06:06:16;22.50;59.80
75049;DHT22;63803;53.120;8.764;2022-10-15T06:08:43;23.20;59.80
75049;DHT22;63803;53.120;8.764;2022-10-15T06:11:09;23.30;59.90
75049;DHT22;63803;53.120;8.764;2022-10-15T06:13:37;23.20;59.70
75049;DHT22;63803;53.120;8.764;2022-10-15T06:16:04;23.30;59.80
75049;DHT22;63803;53.120;8.764;2022-10-15T06:18:30;23.20;59.70
75049;DHT22;63803;53.120;8.764;2022-10-15T06:20:56;23.20;59.80
75049;DHT22;63803;53.120;8.764;2022-10-15T06:23:22;23.20;59.70
75049;DHT22;63803;53.120;8.764;2022-10-15T06:25:49;23.20;59.80
75049;DHT22;63803;53.120;8.764;2022-10-15T06:28:15;23.30;59.80
75049;DHT22;63803;53.120;8.764;2022-10-15T06:30:42;23.20;59.70
75049;DHT22;63803;53.120;8.764;2022-10-15T06:33:08;23.10;59.70
75049;DHT22;63803;53.120;8.764;2022-10-15T06:35:33;23.20;59.60
75049;DHT22;63803;53.120;8.764;2022-10-15T06:38:02;23.20;59.60
75049;DHT22;63803;53.120;8.764;2022-10-15T06:40:28;23.20;59.60
75049;DHT22;63803;53.120;8.764;2022-10-15T06:42:54;23.20;59.80
75049;DHT22;63803;53.120;8.764;2022-10-15T06:45:20;23.50;60.80
75049;DHT22;63803;53.120;8.764;2022-10-15T06:47:46;23.10;60.30
75049;DHT22;63803;53.120;8.764;2022-10-15T06:50:12;23.20;60.60
75049;DHT22;63803;53.120;8.764;2022-10-15T06:52:38;23.50;61.30
75049;DHT22;63803;53.120;8.764;2022-10-15T06:55:04;23.20;60.80
75049;DHT22;63803;53.120;8.764;2022-10-15T06:57:30;23.30;61.40
75049;DHT22;63803;53.120;8.764;2022-10-15T06:59:56;23.20;61.60
75049;DHT22;63803;53.120;8.764;2022-10-15T07:02:22;23.20;62.00
75049;DHT22;63803;53.120;8.764;2022-10-15T07:04:49;23.20;62.20
75049;DHT22;63803;53.120;8.764;2022-10-15T07:07:15;23.20;62.30
75049;DHT22;63803;53.120;8.764;2022-10-15T07:09:41;23.20;62.40
75049;DHT22;63803;53.120;8.764;2022-10-15T07:12:07;23.20;62.20
75049;DHT22;63803;53.120;8.764;2022-10-15T07:14:32;23.20;61.90
75049;DHT22;63803;53.120;8.764;2022-10-15T07:16:58;23.20;61.90
75049;DHT22;63803;53.120;8.764;2022-10-15T07:19:24;23.20;61.70
75049;DHT22;63803;53.120;8.764;2022-10-15T07:21:50;24.70;63.30
75049;DHT22;63803;53.120;8.764;2022-10-15T07:24:16;23.30;62.10
75049;DHT22;63803;53.120;8.764;2022-10-15T07:26:42;23.30;62.00
75049;DHT22;63803;53.120;8.764;2022-10-15T07:29:08;23.20;62.60
75049;DHT22;63803;53.120;8.764;2022-10-15T07:31:34;23.20;62.00
75049;DHT22;63803;53.120;8.764;2022-10-15T07:34:00;23.30;62.00
75049;DHT22;63803;53.120;8.764;2022-10-15T07:36:25;23.30;62.00
75049;DHT22;63803;53.120;8.764;2022-10-15T07:38:51;23.30;62.10
75049;DHT22;63803;53.120;8.764;2022-10-15T07:41:17;23.20;61.90
75049;DHT22;63803;53.120;8.764;2022-10-15T07:43:43;23.30;62.10
75049;DHT22;63803;53.120;8.764;2022-10-15T07:46:10;23.20;62.00
75049;DHT22;63803;53.120;8.764;2022-10-15T07:48:36;23.30;62.10
75049;DHT22;63803;53.120;8.764;2022-10-15T07:51:04;23.30;61.70
75049;DHT22;63803;53.120;8.764;2022-10-15T07:53:31;23.00;60.40
75049;DHT22;63803;53.120;8.764;2022-10-15T07:55:59;22.90;61.00
75049;DHT22;63803;53.120;8.764;2022-10-15T07:58:25;22.80;61.00
75049;DHT22;63803;53.120;8.764;2022-10-15T08:00:52;22.80;61.50
75049;DHT22;63803;53.120;8.764;2022-10-15T08:03:17;23.00;61.50
75049;DHT22;63803;53.120;8.764;2022-10-15T08:05:43;22.90;60.90
75049;DHT22;63803;53.120;8.764;2022-10-15T08:08:09;23.00;60.80
75049;DHT22;63803;53.120;8.764;2022-10-15T08:10:35;24.00;62.00
75049;DHT22;63803;53.120;8.764;2022-10-15T08:13:01;23.10;61.20
75049;DHT22;63803;53.120;8.764;2022-10-15T08:15:27;23.20;61.20
75049;DHT22;63803;53.120;8.764;2022-10-15T08:17:52;23.20;61.20
75049;DHT22;63803;53.120;8.764;2022-10-15T08:20:18;23.30;61.10
75049;DHT22;63803;53.120;8.764;2022-10-15T08:22:45;23.30;61.00
75049;DHT22;63803;53.120;8.764;2022-10-15T08:25:10;22.30;60.70
75049;DHT22;63803;53.120;8.764;2022-10-15T08:27:36;23.30;60.80
75049;DHT22;63803;53.120;8.764;2022-10-15T08:30:02;23.30;60.90
75049;DHT22;63803;53.120;8.764;2022-10-15T08:32:28;23.30;61.10
75049;DHT22;63803;53.120;8.764;2022-10-15T08:34:54;23.30;61.10
75049;DHT22;63803;53.120;8.764;2022-10-15T08:37:20;23.30;61.10
75049;DHT22;63803;53.120;8.764;2022-10-15T08:39:46;22.40;61.00
75049;DHT22;63803;53.120;8.764;2022-10-15T08:42:36;23.20;61.20
75049;DHT22;63803;53.120;8.764;2022-10-15T08:45:02;23.30;61.20
75049;DHT22;63803;53.120;8.764;2022-10-15T08:50:17;23.20;61.10
75049;DHT22;63803;53.120;8.764;2022-10-15T08:52:47;22.50;61.20
75049;DHT22;63803;53.120;8.764;2022-10-15T08:55:19;23.70;61.90
75049;DHT22;63803;53.120;8.764;2022-10-15T09:01:25;22.80;61.60
75049;DHT22;63803;53.120;8.764;2022-10-15T09:09:30;23.20;61.30
75049;DHT22;63803;53.120;8.764;2022-10-15T09:14:13;23.10;61.30
75049;DHT22;63803;53.120;8.764;2022-10-15T09:16:44;23.10;61.30
75049;DHT22;63803;53.120;8.764;2022-10-15T09:19:20;23.20;61.40
75049;DHT22;63803;53.120;8.764;2022-10-15T09:21:48;23.20;61.30
75049;DHT22;63803;53.120;8.764;2022-10-15T09:24:24;23.00;61.70
75049;DHT22;63803;53.120;8.764;2022-10-15T09:26:56;23.10;61.30
75049;DHT22;63803;53.120;8.764;2022-10-15T09:35:02;23.10;61.40
75049;DHT22;63803;53.120;8.764;2022-10-15T09:37:53;23.10;61.30
75049;DHT22;63803;53.120;8.764;2022-10-15T09:43:04;23.10;61.30
75049;DHT22;63803;53.120;8.764;2022-10-15T09:45:31;23.10;61.40
75049;DHT22;63803;53.120;8.764;2022-10-15T09:47:58;23.10;61.30
75049;DHT22;63803;53.120;8.764;2022-10-15T09:50:34;23.10;61.30
75049;DHT22;63803;53.120;8.764;2022-10-15T09:58:05;23.00;61.30
75049;DHT22;63803;53.120;8.764;2022-10-15T10:03:15;23.00;61.30
75049;DHT22;63803;53.120;8.764;2022-10-15T10:05:41;23.10;61.30
75049;DHT22;63803;53.120;8.764;2022-10-15T10:08:23;23.10;61.60
75049;DHT22;63803;53.120;8.764;2022-10-15T10:10:54;23.10;61.30
75049;DHT22;63803;53.120;8.764;2022-10-15T10:13:29;23.10;61.30
75049;DHT22;63803;53.120;8.764;2022-10-15T10:16:10;23.10;61.40
75049;DHT22;63803;53.120;8.764;2022-10-15T10:18:36;24.70;62.70
75049;DHT22;63803;53.120;8.764;2022-10-15T10:21:21;23.10;61.30
75049;DHT22;63803;53.120;8.764;2022-10-15T10:23:47;23.10;61.40
75049;DHT22;63803;53.120;8.764;2022-10-15T10:26:13;24.80;63.00
75049;DHT22;63803;53.120;8.764;2022-10-15T10:28:50;23.10;61.50
75049;DHT22;63803;53.120;8.764;2022-10-15T10:31:17;23.10;61.40
75049;DHT22;63803;53.120;8.764;2022-10-15T10:33:51;23.10;61.40
75049;DHT22;63803;53.120;8.764;2022-10-15T10:36:25;23.10;61.30
75049;DHT22;63803;53.120;8.764;2022-10-15T10:44:44;23.10;61.50
75049;DHT22;63803;53.120;8.764;2022-10-15T10:47:19;23.10;61.40
75049;DHT22;63803;53.120;8.764;2022-10-15T10:52:30;23.10;61.30
75049;DHT22;63803;53.120;8.764;2022-10-15T10:57:49;23.10;61.50
75049;DHT22;63803;53.120;8.764;2022-10-15T11:02:51;23.10;61.40
75049;DHT22;63803;53.120;8.764;2022-10-15T11:05:28;22.40;61.40
75049;DHT22;63803;53.120;8.764;2022-10-15T11:08:09;23.00;61.40
75049;DHT22;63803;53.120;8.764;2022-10-15T11:10:47;23.10;62.40
75049;DHT22;63803;53.120;8.764;2022-10-15T11:13:57;23.10;62.30
75049;DHT22;63803;53.120;8.764;2022-10-15T11:16:41;23.10;62.00
75049;DHT22;63803;53.120;8.764;2022-10-15T11:25:00;23.30;62.40
75049;DHT22;63803;53.120;8.764;2022-10-15T11:28:36;23.00;62.40
75049;DHT22;63803;53.120;8.764;2022-10-15T11:31:12;23.00;62.30
75049;DHT22;63803;53.120;8.764;2022-10-15T11:37:03;23.10;62.40
75049;DHT22;63803;53.120;8.764;2022-10-15T11:39:41;22.70;62.60
75049;DHT22;63803;53.120;8.764;2022-10-15T11:42:34;23.00;62.30
75049;DHT22;63803;53.120;8.764;2022-10-15T11:48:01;23.00;62.00
75049;DHT22;63803;53.120;8.764;2022-10-15T11:50:44;23.00;62.10
75049;DHT22;63803;53.120;8.764;2022-10-15T11:53:37;23.00;62.00
75049;DHT22;63803;53.120;8.764;2022-10-15T11:56:12;22.10;62.00
75049;DHT22;63803;53.120;8.764;2022-10-15T12:04:44;22.90;62.00
75049;DHT22;63803;53.120;8.764;2022-10-15T12:07:19;22.90;62.10
75049;DHT22;63803;53.120;8.764;2022-10-15T12:09:50;23.00;62.00
75049;DHT22;63803;53.120;8.764;2022-10-15T12:18:54;22.90;62.10
75049;DHT22;63803;53.120;8.764;2022-10-15T12:20:47;22.90;62.10
75049;DHT22;63803;53.120;8.764;2022-10-15T12:23:26;22.90;62.10
75049;DHT22;63803;53.120;8.764;2022-10-15T12:28:54;22.90;62.30
75049;DHT22;63803;53.120;8.764;2022-10-15T12:31:21;22.90;62.50
75049;DHT22;63803;53.120;8.764;2022-10-15T12:33:51;23.00;62.30
75049;DHT22;63803;53.120;8.764;2022-10-15T12:39:22;22.90;62.20
75049;DHT22;63803;53.120;8.764;2022-10-15T12:41:49;22.90;62.20
75049;DHT22;63803;53.120;8.764;2022-10-15T12:44:27;20.90;61.40
75049;DHT22;63803;53.120;8.764;2022-10-15T12:46:54;23.00;62.60
75049;DHT22;63803;53.120;8.764;2022-10-15T12:52:01;22.90;62.20
75049;DHT22;63803;53.120;8.764;2022-10-15T12:54:50;22.90;62.30
75049;DHT22;63803;53.120;8.764;2022-10-15T13:00:27;22.90;62.10
75049;DHT22;63803;53.120;8.764;2022-10-15T13:02:55;22.90;62.10
75049;DHT22;63803;53.120;8.764;2022-10-15T13:05:31;22.30;62.50
75049;DHT22;63803;53.120;8.764;2022-10-15T13:07:59;24.60;63.60
75049;DHT22;63803;53.120;8.764;2022-10-15T13:10:39;22.40;62.20
75049;DHT22;63803;53.120;8.764;2022-10-15T13:13:17;22.90;62.10
75049;DHT22;63803;53.120;8.764;2022-10-15T13:15:54;22.80;62.10
75049;DHT22;63803;53.120;8.764;2022-10-15T13:18:21;22.80;62.10
75049;DHT22;63803;53.120;8.764;2022-10-15T13:20:49;22.80;62.20
75049;DHT22;63803;53.120;8.764;2022-10-15T13:23:45;22.80;62.10
75049;DHT22;63803;53.120;8.764;2022-10-15T13:26:16;22.80;62.10
75049;DHT22;63803;53.120;8.764;2022-10-15T13:28:43;24.30;63.40
75049;DHT22;63803;53.120;8.764;2022-10-15T13:31:31;22.80;62.10
75049;DHT22;63803;53.120;8.764;2022-10-15T13:34:29;23.60;63.00
75049;DHT22;63803;53.120;8.764;2022-10-15T13:36:57;22.80;62.20
75049;DHT22;63803;53.120;8.764;2022-10-15T13:39:36;22.80;62.10
75049;DHT22;63803;53.120;8.764;2022-10-15T13:42:17;22.80;62.10
75049;DHT22;63803;53.120;8.764;2022-10-15T13:44:55;22.80;62.20
75049;DHT22;63803;53.120;8.764;2022-10-15T13:47:28;21.90;62.10
75049;DHT22;63803;53.120;8.764;2022-10-15T13:50:25;22.80;62.10
75049;DHT22;63803;53.120;8.764;2022-10-15T13:52:58;22.80;62.10
75049;DHT22;63803;53.120;8.764;2022-10-15T13:55:29;21.80;62.10
75049;DHT22;63803;53.120;8.764;2022-10-15T13:58:04;22.80;62.20
75049;DHT22;63803;53.120;8.764;2022-10-15T14:00:32;22.80;62.10
75049;DHT22;63803;53.120;8.764;2022-10-15T14:03:16;22.80;62.10
75049;DHT22;63803;53.120;8.764;2022-10-15T14:05:44;22.80;62.10
75049;DHT22;63803;53.120;8.764;2022-10-15T14:08:20;22.70;62.50
75049;DHT22;63803;53.120;8.764;2022-10-15T14:10:47;22.80;62.20
75049;DHT22;63803;53.120;8.764;2022-10-15T14:13:14;22.80;62.10
75049;DHT22;63803;53.120;8.764;2022-10-15T14:18:06;22.80;62.20
75049;DHT22;63803;53.120;8.764;2022-10-15T14:20:32;22.80;62.20
75049;DHT22;63803;53.120;8.764;2022-10-15T14:22:58;22.80;62.40
75049;DHT22;63803;53.120;8.764;2022-10-15T14:25:25;21.80;62.30
75049;DHT22;63803;53.120;8.764;2022-10-15T14:27:51;22.80;62.40
75049;DHT22;63803;53.120;8.764;2022-10-15T14:30:43;22.80;62.30
75049;DHT22;63803;53.120;8.764;2022-10-15T14:33:33;22.40;62.80
75049;DHT22;63803;53.120;8.764;2022-10-15T14:36:28;22.80;62.60
75049;DHT22;63803;53.120;8.764;2022-10-15T14:38:54;22.80;62.40
75049;DHT22;63803;53.120;8.764;2022-10-15T14:42:03;22.80;62.50
75049;DHT22;63803;53.120;8.764;2022-10-15T14:44:46;22.80;62.40
75049;DHT22;63803;53.120;8.764;2022-10-15T14:47:23;22.70;62.50
75049;DHT22;63803;53.120;8.764;2022-10-15T14:49:53;22.70;62.50
75049;DHT22;63803;53.120;8.764;2022-10-15T14:52:20;24.10;64.10
75049;DHT22;63803;53.120;8.764;2022-10-15T14:55:47;22.80;63.00
75049;DHT22;63803;53.120;8.764;2022-10-15T14:57:51;22.80;62.70
75049;DHT22;63803;53.120;8.764;2022-10-15T15:00:27;22.80;62.70
75049;DHT22;63803;53.120;8.764;2022-10-15T15:02:57;22.70;62.50
75049;DHT22;63803;53.120;8.764;2022-10-15T15:05:27;22.70;62.00
75049;DHT22;63803;53.120;8.764;2022-10-15T15:07:55;22.70;62.50
75049;DHT22;63803;53.120;8.764;2022-10-15T15:10:25;22.70;62.60
75049;DHT22;63803;53.120;8.764;2022-10-15T15:12:55;23.20;63.30
75049;DHT22;63803;53.120;8.764;2022-10-15T15:15:23;22.70;62.60
75049;DHT22;63803;53.120;8.764;2022-10-15T15:17:49;22.70;62.60
75049;DHT22;63803;53.120;8.764;2022-10-15T15:20:17;22.70;62.60
75049;DHT22;63803;53.120;8.764;2022-10-15T15:22:48;22.20;62.90
75049;DHT22;63803;53.120;8.764;2022-10-15T15:25:31;22.70;62.70
75049;DHT22;63803;53.120;8.764;2022-10-15T15:27:59;22.90;62.80
75049;DHT22;63803;53.120;8.764;2022-10-15T15:30:27;22.70;62.70
75049;DHT22;63803;53.120;8.764;2022-10-15T15:32:53;22.70;63.10
75049;DHT22;63803;53.120;8.764;2022-10-15T15:35:28;22.80;63.00
75049;DHT22;63803;53.120;8.764;2022-10-15T15:37:54;22.80;62.90
75049;DHT22;63803;53.120;8.764;2022-10-15T15:40:20;22.70;62.80
75049;DHT22;63803;53.120;8.764;2022-10-15T15:42:47;22.70;62.70
75049;DHT22;63803;53.120;8.764;2022-10-15T15:45:22;22.10;62.90
75049;DHT22;63803;53.120;8.764;2022-10-15T15:47:49;22.70;62.70
75049;DHT22;63803;53.120;8.764;2022-10-15T15:50:16;22.70;62.90
75049;DHT22;63803;53.120;8.764;2022-10-15T15:52:43;22.70;62.80
75049;DHT22;63803;53.120;8.764;2022-10-15T15:55:09;22.80;62.90
75049;DHT22;63803;53.120;8.764;2022-10-15T15:57:35;22.70;62.80
75049;DHT22;63803;53.120;8.764;2022-10-15T16:00:03;22.70;62.80
75049;DHT22;63803;53.120;8.764;2022-10-15T16:02:29;22.70;62.90
75049;DHT22;63803;53.120;8.764;2022-10-15T16:04:54;22.70;62.80
75049;DHT22;63803;53.120;8.764;2022-10-15T16:07:20;22.70;62.90
75049;DHT22;63803;53.120;8.764;2022-10-15T16:09:46;22.70;62.90
75049;DHT22;63803;53.120;8.764;2022-10-15T16:12:12;22.70;62.80
75049;DHT22;63803;53.120;8.764;2022-10-15T16:14:38;22.70;62.80
75049;DHT22;63803;53.120;8.764;2022-10-15T16:17:04;22.80;63.20
75049;DHT22;63803;53.120;8.764;2022-10-15T16:19:30;22.70;62.70
75049;DHT22;63803;53.120;8.764;2022-10-15T16:21:56;22.70;62.80
75049;DHT22;63803;53.120;8.764;2022-10-15T16:24:22;22.80;63.30
75049;DHT22;63803;53.120;8.764;2022-10-15T16:26:47;22.90;62.90
75049;DHT22;63803;53.120;8.764;2022-10-15T16:29:13;22.70;62.80
75049;DHT22;63803;53.120;8.764;2022-10-15T16:31:41;22.70;63.20
75049;DHT22;63803;53.120;8.764;2022-10-15T16:34:07;22.70;63.10
75049;DHT22;63803;53.120;8.764;2022-10-15T16:36:33;23.50;63.80
75049;DHT22;63803;53.120;8.764;2022-10-15T16:39:01;22.80;63.00
75049;DHT22;63803;53.120;8.764;2022-10-15T16:41:26;22.30;63.20
75049;DHT22;63803;53.120;8.764;2022-10-15T16:43:53;22.70;63.00
75049;DHT22;63803;53.120;8.764;2022-10-15T16:46:19;22.80;62.80
75049;DHT22;63803;53.120;8.764;2022-10-15T16:48:46;22.80;62.90
75049;DHT22;63803;53.120;8.764;2022-10-15T16:51:15;22.70;62.70
75049;DHT22;63803;53.120;8.764;2022-10-15T16:53:43;22.70;62.80
75049;DHT22;63803;53.120;8.764;2022-10-15T16:56:16;22.70;62.80
75049;DHT22;63803;53.120;8.764;2022-10-15T16:58:43;22.70;62.80
75049;DHT22;63803;53.120;8.764;2022-10-15T17:01:11;22.70;62.80
75049;DHT22;63803;53.120;8.764;2022-10-15T17:03:39;22.70;62.80
75049;DHT22;63803;53.120;8.764;2022-10-15T17:06:07;22.70;63.40
75049;DHT22;63803;53.120;8.764;2022-10-15T17:08:37;22.80;62.90
75049;DHT22;63803;53.120;8.764;2022-10-15T17:11:07;22.80;63.10
75049;DHT22;63803;53.120;8.764;2022-10-15T17:13:33;22.70;62.80
75049;DHT22;63803;53.120;8.764;2022-10-15T17:16:15;22.70;63.00
75049;DHT22;63803;53.120;8.764;2022-10-15T17:18:42;22.80;63.30
75049;DHT22;63803;53.120;8.764;2022-10-15T17:21:10;22.50;63.50
75049;DHT22;63803;53.120;8.764;2022-10-15T17:23:37;22.80;63.30
75049;DHT22;63803;53.120;8.764;2022-10-15T17:26:06;22.70;63.10